Des Moines, Iowa
Current Conditions -  °F | °C
As of 9:54 AM on Friday 24 Oct 2014 (Local Time) from KDSM Reporting Station
Haze Haze  
Wind Chill: 61°   Ceiling: 200
Heat Index: 61°   Visibility: 1.2mi
Dew Point: 59°   Wind: 13mph
Humidity: 93%   Direction: 190°S
Pressure: 29.97"   Gusts: NA
Location:  41.59°N, 93.61°W
Report Text: KDSM 241454Z 19011KT 1 1/4SM BR OVC002 16/15 A2997 RMK AO2 SFC VIS 1 3/4 SLP147 T01610150 58005
Loading
Personal Weather Stations






























Interactive Weather Map
Tropical Storm Tracking
New forecast layout! Learn more

10-Day Weather Forecast

Advertisements
Track Severe Weather on mobile